Airfield :
LOGIN :

Register | Disclaimer

   EN    FR    IT 

 










Legend :    VFR   Marginal VFR   IFR   Intensive IFR   Very Intensive IFR
Visi :
Ceiling :
>= 8 km
>= 3000ft
5 to 8 km
1000 to 3000 ft
1500m to 5 km
500 to 1000 ft
800 to 1500m
200 to 500 ft
< 800m
< 200 ft
Symbols :   Thunderstorms  Fog  Heavy snow  Heavy precipitations  Wind > 20 kt
SIGMETs :     Misc.  Thunderstorms  Icing  Turbulence  Mountain Waves  Volcanic Ashes







- Airport Elevation : 19 ft
- IATA code : LCY
- Download approach charts


EGLC - London City

CURRENT METAR :
  • 220020Z AUTO 27010KT 9999 //////CB 17/13 Q1015

EXPIRED METARs :
  • 212350Z AUTO 28009KT 7000 BKN049/// //////CB 18/12 Q1015
  • 212320Z AUTO 12004KT 080V190 5000 HZ //////CB 15/12 Q1015
  • 212250Z AUTO 09007KT 5000 HZ //////CB 15/12 Q1015
  • 212220Z AUTO 09006KT 5000 HZ NCD 15/13 Q1015
  • 212150Z AUTO 09005KT 6000 NCD 16/12 Q1015

Expired Forecast.
ATIS : +44 20 7646 0224
No reported NOTAMs for that airfield.
1 SIGMET reported for the London FIR (EGTT) :
 
Embedded thunderstorms and hail
EGTT SIGMET 05 VALID 212330/220330 EGRR
EGTT LONDON FIR EMBD TSGR FCST WI N5000 W00015 - N5000 W00100 - N5134 W00305 - N5340 W00258 - N5328 E00116 - N5036 E00118 - N5000 W00015 TOP FL320 MOV N 15KT NC=



MET'MAP, your aeronautical weather chart ! - Copyright ORBIFLY December 2007 - Disclaimer

ORBIFLY MET'MAP TEAM :

Programming & Development : Alexandra Zaïnal
Concept & Development : Baudouin d'Aumeries
Co-Development & Prog : Marc-Olivier Méhu
Technical & hardware support : Manuel Goepfert

Contact : metmap@orbifly.com




SOURCES & CREDITS :

   NOAA